YTPE weather

Tempe Downs Airport
Northern Territory, Australia

Public forecast

Using degrees Celsius for public forecast. Weather courtesy of forecast.io.

Closest aviation weather report (METAR) to Tempe Downs Airport

Closest report is Alice Springs Airport, 88.1 nm (163.2 km) ENE. Retrieved 2020/04/08 03:00 UTC (2 hours ago):

YBAS 080300Z AUTO 09009KT 9999 // OVC115 23/06 Q1019 RF000/0000

Closest aviation forecast (TAF) to Tempe Downs Airport

Closest forecast is Alice Springs Airport, 88.1 nm (163.2 km) ENE. Retrieved 2020-04-08 00:00 UTC (5 hours ago):

TAF YBAS 072320Z 0800/0900 10010KT CAVOK FM081600 30005KT CAVOK